WEATHER

Warnervale Skycam

North West View

North West View

South West View

South West View

Sydney Airport Forecast

  • YSSY TAF

    TAF YSSY 272334Z 2800/2906 07013KT 9999 FEW030 FM280900 04012KT 9999 -SHRA SCT020 FM281200 30008KT 9999 -SHRA SCT020 FM290100 04015KT 9999 NSW FEW030 INTER 2813/2823 4000 SHRA FEW010 BKN015 RMK T 22 23 22 20 Q 1025 1023 1022 1022

  • YSSY METAR

    TTF METAR YSSY 280430Z 08012KT 9999 SCT040 BKN048 24/13 Q1022 RMK RF00.0/000.0 NOSIG

All information provided on this page is for general information and should NOT be used for flight planning.